sensor_id;sensor_type;location;lat;lon;timestamp;P1;durP1;ratioP1;P2;durP2;ratioP2
65684;SDS011;52405;50.844;-1.062;2022-11-20T00:02:18;14.07;;;6.28;;
65684;SDS011;52405;50.844;-1.062;2022-11-20T00:04:44;16.02;;;6.25;;
65684;SDS011;52405;50.844;-1.062;2022-11-20T00:07:10;15.50;;;6.07;;
65684;SDS011;52405;50.844;-1.062;2022-11-20T00:09:35;11.63;;;5.85;;
65684;SDS011;52405;50.844;-1.062;2022-11-20T00:12:00;15.68;;;6.18;;
65684;SDS011;52405;50.844;-1.062;2022-11-20T00:14:26;17.30;;;5.90;;
65684;SDS011;52405;50.844;-1.062;2022-11-20T00:16:51;17.17;;;7.10;;
65684;SDS011;52405;50.844;-1.062;2022-11-20T00:19:17;22.35;;;8.25;;
65684;SDS011;52405;50.844;-1.062;2022-11-20T00:21:42;24.00;;;7.95;;
65684;SDS011;52405;50.844;-1.062;2022-11-20T00:24:08;23.20;;;8.02;;
65684;SDS011;52405;50.844;-1.062;2022-11-20T00:26:34;19.77;;;6.93;;
65684;SDS011;52405;50.844;-1.062;2022-11-20T00:29:00;23.15;;;8.05;;
65684;SDS011;52405;50.844;-1.062;2022-11-20T00:31:26;18.30;;;7.97;;
65684;SDS011;52405;50.844;-1.062;2022-11-20T00:33:52;23.92;;;8.82;;
65684;SDS011;52405;50.844;-1.062;2022-11-20T00:36:19;22.60;;;7.40;;
65684;SDS011;52405;50.844;-1.062;2022-11-20T00:38:46;30.38;;;9.52;;
65684;SDS011;52405;50.844;-1.062;2022-11-20T00:41:14;23.23;;;8.68;;
65684;SDS011;52405;50.844;-1.062;2022-11-20T00:43:40;26.50;;;8.90;;
65684;SDS011;52405;50.844;-1.062;2022-11-20T00:46:10;32.25;;;9.77;;
65684;SDS011;52405;50.844;-1.062;2022-11-20T00:48:39;21.63;;;7.82;;
65684;SDS011;52405;50.844;-1.062;2022-11-20T00:51:05;19.85;;;7.00;;
65684;SDS011;52405;50.844;-1.062;2022-11-20T00:53:30;14.68;;;6.05;;
65684;SDS011;52405;50.844;-1.062;2022-11-20T00:55:57;15.10;;;6.45;;
65684;SDS011;52405;50.844;-1.062;2022-11-20T00:58:31;16.08;;;6.18;;
65684;SDS011;52405;50.844;-1.062;2022-11-20T01:01:05;9.73;;;5.00;;
65684;SDS011;52405;50.844;-1.062;2022-11-20T01:03:37;10.77;;;5.32;;
65684;SDS011;52405;50.844;-1.062;2022-11-20T01:06:07;9.93;;;4.78;;
65684;SDS011;52405;50.844;-1.062;2022-11-20T01:08:38;9.07;;;4.47;;
65684;SDS011;52405;50.844;-1.062;2022-11-20T01:11:15;13.10;;;4.53;;
65684;SDS011;52405;50.844;-1.062;2022-11-20T01:13:42;14.00;;;5.45;;
65684;SDS011;52405;50.844;-1.062;2022-11-20T01:16:14;12.07;;;5.05;;
65684;SDS011;52405;50.844;-1.062;2022-11-20T01:18:41;8.60;;;4.70;;
65684;SDS011;52405;50.844;-1.062;2022-11-20T01:21:19;11.80;;;4.55;;
65684;SDS011;52405;50.844;-1.062;2022-11-20T01:23:46;9.23;;;4.80;;
65684;SDS011;52405;50.844;-1.062;2022-11-20T01:26:14;9.05;;;4.28;;
65684;SDS011;52405;50.844;-1.062;2022-11-20T01:28:42;12.98;;;4.40;;
65684;SDS011;52405;50.844;-1.062;2022-11-20T01:31:41;12.48;;;4.40;;
65684;SDS011;52405;50.844;-1.062;2022-11-20T01:34:02;11.80;;;3.88;;
65684;SDS011;52405;50.844;-1.062;2022-11-20T01:36:32;10.93;;;4.43;;
65684;SDS011;52405;50.844;-1.062;2022-11-20T01:39:00;7.97;;;4.82;;
65684;SDS011;52405;50.844;-1.062;2022-11-20T01:41:29;10.75;;;4.35;;
65684;SDS011;52405;50.844;-1.062;2022-11-20T01:44:15;9.88;;;4.45;;
65684;SDS011;52405;50.844;-1.062;2022-11-20T01:46:47;11.23;;;4.90;;
65684;SDS011;52405;50.844;-1.062;2022-11-20T01:49:24;12.95;;;4.57;;
65684;SDS011;52405;50.844;-1.062;2022-11-20T01:52:07;16.80;;;5.78;;
65684;SDS011;52405;50.844;-1.062;2022-11-20T01:54:41;10.27;;;4.63;;
65684;SDS011;52405;50.844;-1.062;2022-11-20T01:57:13;11.95;;;4.57;;
65684;SDS011;52405;50.844;-1.062;2022-11-20T01:59:43;12.48;;;5.13;;
65684;SDS011;52405;50.844;-1.062;2022-11-20T02:02:13;12.35;;;3.75;;
65684;SDS011;52405;50.844;-1.062;2022-11-20T02:04:39;10.70;;;4.00;;
65684;SDS011;52405;50.844;-1.062;2022-11-20T02:07:05;7.13;;;3.60;;
65684;SDS011;52405;50.844;-1.062;2022-11-20T02:09:30;7.47;;;4.10;;
65684;SDS011;52405;50.844;-1.062;2022-11-20T02:11:56;8.50;;;3.55;;
65684;SDS011;52405;50.844;-1.062;2022-11-20T02:14:23;9.65;;;2.80;;
65684;SDS011;52405;50.844;-1.062;2022-11-20T02:16:50;5.32;;;2.70;;
65684;SDS011;52405;50.844;-1.062;2022-11-20T02:19:22;5.45;;;1.90;;
65684;SDS011;52405;50.844;-1.062;2022-11-20T02:24:26;3.78;;;1.35;;
65684;SDS011;52405;50.844;-1.062;2022-11-20T02:26:53;7.03;;;1.52;;
65684;SDS011;52405;50.844;-1.062;2022-11-20T02:29:52;3.53;;;0.93;;
65684;SDS011;52405;50.844;-1.062;2022-11-20T02:32:22;4.47;;;0.82;;
65684;SDS011;52405;50.844;-1.062;2022-11-20T02:34:48;7.03;;;0.93;;
65684;SDS011;52405;50.844;-1.062;2022-11-20T02:37:14;3.25;;;1.23;;
65684;SDS011;52405;50.844;-1.062;2022-11-20T02:39:39;5.75;;;0.95;;
65684;SDS011;52405;50.844;-1.062;2022-11-20T02:42:05;3.33;;;1.10;;
65684;SDS011;52405;50.844;-1.062;2022-11-20T02:44:30;2.80;;;1.45;;
65684;SDS011;52405;50.844;-1.062;2022-11-20T02:46:57;5.35;;;1.85;;
65684;SDS011;52405;50.844;-1.062;2022-11-20T02:49:23;4.72;;;1.00;;
65684;SDS011;52405;50.844;-1.062;2022-11-20T02:51:49;5.10;;;1.35;;
65684;SDS011;52405;50.844;-1.062;2022-11-20T02:54:14;2.58;;;1.00;;
65684;SDS011;52405;50.844;-1.062;2022-11-20T02:56:40;4.25;;;0.90;;
65684;SDS011;52405;50.844;-1.062;2022-11-20T02:59:05;5.63;;;1.60;;
65684;SDS011;52405;50.844;-1.062;2022-11-20T03:01:31;4.93;;;1.67;;
65684;SDS011;52405;50.844;-1.062;2022-11-20T03:03:57;5.07;;;1.00;;
65684;SDS011;52405;50.844;-1.062;2022-11-20T03:06:22;5.53;;;1.30;;
65684;SDS011;52405;50.844;-1.062;2022-11-20T03:08:48;7.60;;;1.13;;
65684;SDS011;52405;50.844;-1.062;2022-11-20T03:11:13;5.72;;;0.70;;
65684;SDS011;52405;50.844;-1.062;2022-11-20T03:13:39;3.33;;;0.55;;
65684;SDS011;52405;50.844;-1.062;2022-11-20T03:16:05;3.38;;;0.70;;
65684;SDS011;52405;50.844;-1.062;2022-11-20T03:18:32;4.50;;;1.08;;
65684;SDS011;52405;50.844;-1.062;2022-11-20T03:20:58;5.65;;;1.27;;
65684;SDS011;52405;50.844;-1.062;2022-11-20T03:23:24;6.03;;;1.58;;
65684;SDS011;52405;50.844;-1.062;2022-11-20T03:25:49;4.53;;;1.30;;
65684;SDS011;52405;50.844;-1.062;2022-11-20T03:28:15;7.50;;;0.88;;
65684;SDS011;52405;50.844;-1.062;2022-11-20T03:30:40;5.57;;;1.55;;
65684;SDS011;52405;50.844;-1.062;2022-11-20T03:33:06;3.67;;;1.67;;
65684;SDS011;52405;50.844;-1.062;2022-11-20T03:35:31;3.03;;;1.05;;
65684;SDS011;52405;50.844;-1.062;2022-11-20T03:37:57;10.05;;;1.70;;
65684;SDS011;52405;50.844;-1.062;2022-11-20T03:40:23;6.13;;;1.67;;
65684;SDS011;52405;50.844;-1.062;2022-11-20T03:42:48;2.75;;;0.57;;
65684;SDS011;52405;50.844;-1.062;2022-11-20T03:45:17;4.10;;;1.63;;
65684;SDS011;52405;50.844;-1.062;2022-11-20T03:47:43;3.28;;;0.50;;
65684;SDS011;52405;50.844;-1.062;2022-11-20T03:50:10;2.42;;;0.65;;
65684;SDS011;52405;50.844;-1.062;2022-11-20T03:52:38;2.78;;;0.65;;
65684;SDS011;52405;50.844;-1.062;2022-11-20T03:55:03;4.07;;;0.77;;
65684;SDS011;52405;50.844;-1.062;2022-11-20T03:57:30;8.45;;;2.10;;
65684;SDS011;52405;50.844;-1.062;2022-11-20T03:59:55;4.88;;;1.27;;
65684;SDS011;52405;50.844;-1.062;2022-11-20T04:02:21;6.00;;;1.20;;
65684;SDS011;52405;50.844;-1.062;2022-11-20T04:04:46;4.55;;;1.00;;
65684;SDS011;52405;50.844;-1.062;2022-11-20T04:07:12;3.63;;;0.70;;
65684;SDS011;52405;50.844;-1.062;2022-11-20T04:09:37;8.07;;;2.03;;
65684;SDS011;52405;50.844;-1.062;2022-11-20T04:12:02;11.13;;;1.70;;
65684;SDS011;52405;50.844;-1.062;2022-11-20T04:14:28;5.72;;;1.25;;
65684;SDS011;52405;50.844;-1.062;2022-11-20T04:16:53;2.58;;;0.85;;
65684;SDS011;52405;50.844;-1.062;2022-11-20T04:19:19;7.72;;;1.05;;
65684;SDS011;52405;50.844;-1.062;2022-11-20T04:21:44;4.47;;;1.15;;
65684;SDS011;52405;50.844;-1.062;2022-11-20T04:24:10;5.50;;;1.20;;
65684;SDS011;52405;50.844;-1.062;2022-11-20T04:26:36;3.38;;;0.60;;
65684;SDS011;52405;50.844;-1.062;2022-11-20T04:29:02;14.13;;;1.00;;
65684;SDS011;52405;50.844;-1.062;2022-11-20T04:31:29;7.55;;;1.52;;
65684;SDS011;52405;50.844;-1.062;2022-11-20T04:33:59;5.47;;;0.90;;
65684;SDS011;52405;50.844;-1.062;2022-11-20T04:36:29;3.13;;;1.25;;
65684;SDS011;52405;50.844;-1.062;2022-11-20T04:38:56;3.83;;;1.17;;
65684;SDS011;52405;50.844;-1.062;2022-11-20T04:41:27;9.02;;;1.02;;
65684;SDS011;52405;50.844;-1.062;2022-11-20T04:43:57;1.55;;;0.68;;
65684;SDS011;52405;50.844;-1.062;2022-11-20T04:46:27;5.93;;;0.82;;
65684;SDS011;52405;50.844;-1.062;2022-11-20T04:48:53;3.85;;;0.65;;
65684;SDS011;52405;50.844;-1.062;2022-11-20T04:51:19;5.05;;;0.80;;
65684;SDS011;52405;50.844;-1.062;2022-11-20T04:53:44;4.20;;;0.57;;
65684;SDS011;52405;50.844;-1.062;2022-11-20T04:56:11;1.90;;;0.60;;
65684;SDS011;52405;50.844;-1.062;2022-11-20T04:58:38;8.20;;;1.38;;
65684;SDS011;52405;50.844;-1.062;2022-11-20T05:01:05;1.73;;;0.75;;
65684;SDS011;52405;50.844;-1.062;2022-11-20T05:03:32;2.60;;;0.68;;
65684;SDS011;52405;50.844;-1.062;2022-11-20T05:06:02;5.18;;;0.85;;
65684;SDS011;52405;50.844;-1.062;2022-11-20T05:08:29;5.50;;;1.15;;
65684;SDS011;52405;50.844;-1.062;2022-11-20T05:11:12;4.10;;;0.45;;
65684;SDS011;52405;50.844;-1.062;2022-11-20T05:13:39;1.33;;;0.28;;
65684;SDS011;52405;50.844;-1.062;2022-11-20T05:16:06;5.72;;;0.88;;
65684;SDS011;52405;50.844;-1.062;2022-11-20T05:18:34;1.30;;;0.35;;
65684;SDS011;52405;50.844;-1.062;2022-11-20T05:21:01;4.18;;;0.50;;
65684;SDS011;52405;50.844;-1.062;2022-11-20T05:23:27;2.15;;;0.57;;
65684;SDS011;52405;50.844;-1.062;2022-11-20T05:25:54;1.92;;;0.40;;
65684;SDS011;52405;50.844;-1.062;2022-11-20T05:28:21;1.00;;;0.20;;
65684;SDS011;52405;50.844;-1.062;2022-11-20T05:30:47;1.70;;;0.40;;
65684;SDS011;52405;50.844;-1.062;2022-11-20T05:33:13;1.55;;;0.30;;
65684;SDS011;52405;50.844;-1.062;2022-11-20T05:35:38;3.25;;;0.30;;
65684;SDS011;52405;50.844;-1.062;2022-11-20T05:38:04;1.65;;;0.30;;
65684;SDS011;52405;50.844;-1.062;2022-11-20T05:40:29;5.53;;;0.35;;
65684;SDS011;52405;50.844;-1.062;2022-11-20T05:42:55;2.08;;;0.38;;
65684;SDS011;52405;50.844;-1.062;2022-11-20T05:45:20;2.65;;;0.77;;
65684;SDS011;52405;50.844;-1.062;2022-11-20T05:47:46;1.90;;;0.20;;
65684;SDS011;52405;50.844;-1.062;2022-11-20T05:50:12;4.90;;;0.40;;
65684;SDS011;52405;50.844;-1.062;2022-11-20T05:52:38;3.38;;;0.47;;
65684;SDS011;52405;50.844;-1.062;2022-11-20T05:55:03;5.68;;;0.60;;
65684;SDS011;52405;50.844;-1.062;2022-11-20T05:57:30;4.57;;;0.45;;
65684;SDS011;52405;50.844;-1.062;2022-11-20T05:59:56;3.85;;;0.98;;
65684;SDS011;52405;50.844;-1.062;2022-11-20T06:02:21;2.72;;;0.60;;
65684;SDS011;52405;50.844;-1.062;2022-11-20T06:04:47;2.17;;;0.50;;
65684;SDS011;52405;50.844;-1.062;2022-11-20T06:07:13;6.50;;;0.57;;
65684;SDS011;52405;50.844;-1.062;2022-11-20T06:09:38;2.58;;;0.60;;
65684;SDS011;52405;50.844;-1.062;2022-11-20T06:12:04;4.60;;;0.70;;
65684;SDS011;52405;50.844;-1.062;2022-11-20T06:14:30;9.93;;;1.75;;
65684;SDS011;52405;50.844;-1.062;2022-11-20T06:16:55;7.07;;;0.70;;
65684;SDS011;52405;50.844;-1.062;2022-11-20T06:19:21;5.00;;;0.68;;
65684;SDS011;52405;50.844;-1.062;2022-11-20T06:21:47;3.47;;;0.63;;
65684;SDS011;52405;50.844;-1.062;2022-11-20T06:24:14;4.10;;;0.85;;
65684;SDS011;52405;50.844;-1.062;2022-11-20T06:26:39;3.40;;;1.30;;
65684;SDS011;52405;50.844;-1.062;2022-11-20T06:29:05;6.32;;;0.88;;
65684;SDS011;52405;50.844;-1.062;2022-11-20T06:31:30;3.33;;;0.60;;
65684;SDS011;52405;50.844;-1.062;2022-11-20T06:33:59;5.05;;;0.93;;
65684;SDS011;52405;50.844;-1.062;2022-11-20T06:36:25;2.50;;;1.02;;
65684;SDS011;52405;50.844;-1.062;2022-11-20T06:38:51;2.20;;;0.52;;
65684;SDS011;52405;50.844;-1.062;2022-11-20T06:41:18;3.25;;;0.63;;
65684;SDS011;52405;50.844;-1.062;2022-11-20T06:43:46;1.70;;;0.55;;
65684;SDS011;52405;50.844;-1.062;2022-11-20T06:46:12;0.77;;;0.20;;
65684;SDS011;52405;50.844;-1.062;2022-11-20T06:48:38;1.85;;;0.30;;
65684;SDS011;52405;50.844;-1.062;2022-11-20T06:51:05;1.40;;;0.95;;
65684;SDS011;52405;50.844;-1.062;2022-11-20T06:53:32;2.20;;;0.47;;
65684;SDS011;52405;50.844;-1.062;2022-11-20T06:55:57;2.50;;;0.28;;
65684;SDS011;52405;50.844;-1.062;2022-11-20T06:58:23;1.00;;;0.40;;
65684;SDS011;52405;50.844;-1.062;2022-11-20T07:00:52;1.20;;;0.52;;
65684;SDS011;52405;50.844;-1.062;2022-11-20T07:03:18;4.78;;;0.82;;
65684;SDS011;52405;50.844;-1.062;2022-11-20T07:05:43;1.23;;;0.38;;
65684;SDS011;52405;50.844;-1.062;2022-11-20T07:08:10;1.88;;;0.50;;
65684;SDS011;52405;50.844;-1.062;2022-11-20T07:10:35;0.93;;;0.40;;
65684;SDS011;52405;50.844;-1.062;2022-11-20T07:13:01;1.55;;;0.55;;
65684;SDS011;52405;50.844;-1.062;2022-11-20T07:15:26;1.55;;;0.52;;
65684;SDS011;52405;50.844;-1.062;2022-11-20T07:17:52;0.82;;;0.50;;
65684;SDS011;52405;50.844;-1.062;2022-11-20T07:20:17;1.90;;;0.50;;
65684;SDS011;52405;50.844;-1.062;2022-11-20T07:22:43;1.73;;;0.50;;
65684;SDS011;52405;50.844;-1.062;2022-11-20T07:25:09;2.35;;;0.50;;
65684;SDS011;52405;50.844;-1.062;2022-11-20T07:27:35;2.50;;;0.60;;
65684;SDS011;52405;50.844;-1.062;2022-11-20T07:30:01;0.60;;;0.55;;
65684;SDS011;52405;50.844;-1.062;2022-11-20T07:32:27;0.88;;;0.52;;
65684;SDS011;52405;50.844;-1.062;2022-11-20T07:34:53;1.73;;;0.80;;
65684;SDS011;52405;50.844;-1.062;2022-11-20T07:37:18;4.30;;;0.80;;
65684;SDS011;52405;50.844;-1.062;2022-11-20T07:39:44;4.50;;;0.57;;
65684;SDS011;52405;50.844;-1.062;2022-11-20T07:42:09;1.52;;;0.50;;
65684;SDS011;52405;50.844;-1.062;2022-11-20T07:44:35;2.63;;;0.70;;
65684;SDS011;52405;50.844;-1.062;2022-11-20T07:47:01;2.78;;;1.20;;
65684;SDS011;52405;50.844;-1.062;2022-11-20T07:49:26;4.50;;;1.60;;
65684;SDS011;52405;50.844;-1.062;2022-11-20T07:51:52;3.97;;;0.93;;
65684;SDS011;52405;50.844;-1.062;2022-11-20T07:54:21;5.30;;;0.98;;
65684;SDS011;52405;50.844;-1.062;2022-11-20T07:56:47;5.22;;;0.93;;
65684;SDS011;52405;50.844;-1.062;2022-11-20T07:59:13;8.48;;;1.52;;
65684;SDS011;52405;50.844;-1.062;2022-11-20T08:01:38;6.53;;;1.25;;
65684;SDS011;52405;50.844;-1.062;2022-11-20T08:04:04;5.18;;;1.50;;
65684;SDS011;52405;50.844;-1.062;2022-11-20T08:06:30;3.60;;;1.17;;
65684;SDS011;52405;50.844;-1.062;2022-11-20T08:08:56;4.78;;;1.45;;
65684;SDS011;52405;50.844;-1.062;2022-11-20T08:11:21;4.80;;;1.65;;
65684;SDS011;52405;50.844;-1.062;2022-11-20T08:14:06;12.32;;;1.25;;
65684;SDS011;52405;50.844;-1.062;2022-11-20T08:16:44;6.10;;;1.63;;
65684;SDS011;52405;50.844;-1.062;2022-11-20T08:19:12;5.28;;;1.67;;
65684;SDS011;52405;50.844;-1.062;2022-11-20T08:21:38;7.85;;;2.17;;
65684;SDS011;52405;50.844;-1.062;2022-11-20T08:24:04;6.95;;;2.10;;
65684;SDS011;52405;50.844;-1.062;2022-11-20T08:26:30;9.27;;;2.60;;
65684;SDS011;52405;50.844;-1.062;2022-11-20T08:28:56;10.40;;;1.92;;
65684;SDS011;52405;50.844;-1.062;2022-11-20T08:31:23;8.25;;;2.13;;
65684;SDS011;52405;50.844;-1.062;2022-11-20T08:33:50;4.43;;;1.58;;
65684;SDS011;52405;50.844;-1.062;2022-11-20T08:36:16;8.50;;;2.13;;
65684;SDS011;52405;50.844;-1.062;2022-11-20T08:38:42;19.77;;;2.47;;
65684;SDS011;52405;50.844;-1.062;2022-11-20T08:41:11;13.77;;;2.78;;
65684;SDS011;52405;50.844;-1.062;2022-11-20T08:43:55;6.75;;;1.85;;
65684;SDS011;52405;50.844;-1.062;2022-11-20T08:46:23;10.07;;;2.88;;
65684;SDS011;52405;50.844;-1.062;2022-11-20T08:48:49;13.30;;;2.47;;
65684;SDS011;52405;50.844;-1.062;2022-11-20T08:51:15;12.00;;;2.53;;
65684;SDS011;52405;50.844;-1.062;2022-11-20T08:53:41;12.27;;;2.67;;
65684;SDS011;52405;50.844;-1.062;2022-11-20T08:56:07;11.80;;;3.00;;
65684;SDS011;52405;50.844;-1.062;2022-11-20T08:58:32;10.80;;;2.47;;
65684;SDS011;52405;50.844;-1.062;2022-11-20T09:00:58;11.52;;;2.53;;
65684;SDS011;52405;50.844;-1.062;2022-11-20T09:03:24;11.73;;;3.42;;
65684;SDS011;52405;50.844;-1.062;2022-11-20T09:05:56;16.98;;;2.60;;
65684;SDS011;52405;50.844;-1.062;2022-11-20T09:08:25;16.67;;;3.08;;
65684;SDS011;52405;50.844;-1.062;2022-11-20T09:10:51;15.50;;;3.60;;
65684;SDS011;52405;50.844;-1.062;2022-11-20T09:13:17;15.48;;;3.45;;
65684;SDS011;52405;50.844;-1.062;2022-11-20T09:15:43;10.15;;;2.38;;
65684;SDS011;52405;50.844;-1.062;2022-11-20T09:18:08;17.75;;;3.67;;
65684;SDS011;52405;50.844;-1.062;2022-11-20T09:20:34;13.27;;;3.38;;
65684;SDS011;52405;50.844;-1.062;2022-11-20T09:23:00;12.88;;;3.22;;
65684;SDS011;52405;50.844;-1.062;2022-11-20T09:25:25;16.65;;;3.03;;
65684;SDS011;52405;50.844;-1.062;2022-11-20T09:27:58;19.15;;;3.08;;
65684;SDS011;52405;50.844;-1.062;2022-11-20T09:30:24;20.58;;;5.10;;
65684;SDS011;52405;50.844;-1.062;2022-11-20T09:32:50;11.63;;;3.15;;
65684;SDS011;52405;50.844;-1.062;2022-11-20T09:35:16;19.27;;;3.40;;
65684;SDS011;52405;50.844;-1.062;2022-11-20T09:37:42;25.23;;;3.40;;
65684;SDS011;52405;50.844;-1.062;2022-11-20T09:40:19;12.02;;;2.47;;
65684;SDS011;52405;50.844;-1.062;2022-11-20T09:46:14;15.65;;;2.70;;
65684;SDS011;52405;50.844;-1.062;2022-11-20T09:54:26;18.00;;;4.78;;
65684;SDS011;52405;50.844;-1.062;2022-11-20T09:57:29;15.25;;;3.28;;
65684;SDS011;52405;50.844;-1.062;2022-11-20T10:04:49;19.70;;;4.13;;
65684;SDS011;52405;50.844;-1.062;2022-11-20T10:07:25;18.65;;;3.95;;
65684;SDS011;52405;50.844;-1.062;2022-11-20T10:09:56;12.40;;;3.83;;
65684;SDS011;52405;50.844;-1.062;2022-11-20T10:25:40;25.02;;;4.85;;
65684;SDS011;52405;50.844;-1.062;2022-11-20T10:31:07;26.80;;;5.90;;
65684;SDS011;52405;50.844;-1.062;2022-11-20T10:33:36;24.50;;;5.93;;
65684;SDS011;52405;50.844;-1.062;2022-11-20T10:36:13;20.95;;;4.72;;
65684;SDS011;52405;50.844;-1.062;2022-11-20T10:38:54;22.42;;;5.40;;
65684;SDS011;52405;50.844;-1.062;2022-11-20T10:41:28;17.42;;;4.13;;
65684;SDS011;52405;50.844;-1.062;2022-11-20T10:44:15;26.63;;;4.63;;
65684;SDS011;52405;50.844;-1.062;2022-11-20T10:47:03;19.70;;;4.22;;
65684;SDS011;52405;50.844;-1.062;2022-11-20T10:49:30;23.73;;;6.05;;
65684;SDS011;52405;50.844;-1.062;2022-11-20T11:02:15;19.58;;;4.32;;
65684;SDS011;52405;50.844;-1.062;2022-11-20T11:04:46;27.77;;;4.93;;
65684;SDS011;52405;50.844;-1.062;2022-11-20T11:10:00;14.75;;;5.10;;
65684;SDS011;52405;50.844;-1.062;2022-11-20T11:12:27;22.38;;;4.75;;
65684;SDS011;52405;50.844;-1.062;2022-11-20T11:14:54;20.05;;;5.55;;
65684;SDS011;52405;50.844;-1.062;2022-11-20T11:17:28;17.75;;;5.00;;
65684;SDS011;52405;50.844;-1.062;2022-11-20T11:19:56;13.23;;;4.20;;
65684;SDS011;52405;50.844;-1.062;2022-11-20T11:22:44;23.00;;;5.45;;
65684;SDS011;52405;50.844;-1.062;2022-11-20T11:27:46;13.93;;;4.57;;
65684;SDS011;52405;50.844;-1.062;2022-11-20T11:30:13;13.23;;;3.55;;
65684;SDS011;52405;50.844;-1.062;2022-11-20T11:32:41;18.02;;;3.85;;
65684;SDS011;52405;50.844;-1.062;2022-11-20T11:35:11;24.35;;;5.38;;
65684;SDS011;52405;50.844;-1.062;2022-11-20T11:37:46;15.25;;;4.15;;
65684;SDS011;52405;50.844;-1.062;2022-11-20T11:40:13;13.55;;;5.22;;
65684;SDS011;52405;50.844;-1.062;2022-11-20T11:42:43;25.55;;;5.28;;
65684;SDS011;52405;50.844;-1.062;2022-11-20T11:45:12;13.95;;;4.05;;
65684;SDS011;52405;50.844;-1.062;2022-11-20T11:50:23;17.88;;;4.00;;
65684;SDS011;52405;50.844;-1.062;2022-11-20T11:53:09;22.00;;;4.57;;
65684;SDS011;52405;50.844;-1.062;2022-11-20T12:04:28;21.60;;;3.50;;
65684;SDS011;52405;50.844;-1.062;2022-11-20T12:07:08;19.58;;;5.07;;
65684;SDS011;52405;50.844;-1.062;2022-11-20T12:09:58;15.07;;;3.90;;
65684;SDS011;52405;50.844;-1.062;2022-11-20T12:12:31;17.27;;;4.50;;
65684;SDS011;52405;50.844;-1.062;2022-11-20T12:15:01;13.32;;;3.40;;
65684;SDS011;52405;50.844;-1.062;2022-11-20T12:17:29;17.75;;;3.75;;
65684;SDS011;52405;50.844;-1.062;2022-11-20T12:19:54;13.50;;;3.92;;
65684;SDS011;52405;50.844;-1.062;2022-11-20T12:25:16;17.20;;;3.58;;
65684;SDS011;52405;50.844;-1.062;2022-11-20T12:27:47;19.38;;;3.40;;
65684;SDS011;52405;50.844;-1.062;2022-11-20T12:30:17;18.10;;;3.90;;
65684;SDS011;52405;50.844;-1.062;2022-11-20T12:32:48;17.52;;;3.40;;
65684;SDS011;52405;50.844;-1.062;2022-11-20T13:01:38;18.30;;;3.35;;
65684;SDS011;52405;50.844;-1.062;2022-11-20T13:07:01;14.35;;;3.22;;
65684;SDS011;52405;50.844;-1.062;2022-11-20T13:09:29;17.60;;;3.83;;
65684;SDS011;52405;50.844;-1.062;2022-11-20T13:12:15;14.35;;;4.05;;
65684;SDS011;52405;50.844;-1.062;2022-11-20T13:14:42;17.27;;;3.33;;
65684;SDS011;52405;50.844;-1.062;2022-11-20T13:20:14;19.50;;;4.45;;
65684;SDS011;52405;50.844;-1.062;2022-11-20T13:22:43;16.20;;;5.10;;
65684;SDS011;52405;50.844;-1.062;2022-11-20T13:27:47;12.75;;;3.75;;
65684;SDS011;52405;50.844;-1.062;2022-11-20T13:30:16;26.33;;;5.00;;
65684;SDS011;52405;50.844;-1.062;2022-11-20T13:32:54;18.80;;;4.10;;
65684;SDS011;52405;50.844;-1.062;2022-11-20T13:35:32;15.23;;;4.18;;
65684;SDS011;52405;50.844;-1.062;2022-11-20T13:38:00;18.17;;;3.00;;
65684;SDS011;52405;50.844;-1.062;2022-11-20T13:40:26;13.10;;;3.90;;
65684;SDS011;52405;50.844;-1.062;2022-11-20T13:45:24;21.98;;;5.20;;
65684;SDS011;52405;50.844;-1.062;2022-11-20T13:47:53;13.70;;;3.58;;
65684;SDS011;52405;50.844;-1.062;2022-11-20T13:50:19;14.27;;;3.55;;
65684;SDS011;52405;50.844;-1.062;2022-11-20T13:53:02;10.82;;;2.65;;
65684;SDS011;52405;50.844;-1.062;2022-11-20T13:55:57;17.90;;;4.50;;
65684;SDS011;52405;50.844;-1.062;2022-11-20T14:03:46;14.77;;;4.05;;
65684;SDS011;52405;50.844;-1.062;2022-11-20T14:06:32;15.05;;;3.05;;
65684;SDS011;52405;50.844;-1.062;2022-11-20T14:09:03;17.88;;;3.70;;
65684;SDS011;52405;50.844;-1.062;2022-11-20T14:11:29;15.73;;;3.25;;
65684;SDS011;52405;50.844;-1.062;2022-11-20T14:16:42;17.73;;;3.22;;
65684;SDS011;52405;50.844;-1.062;2022-11-20T14:19:21;14.68;;;3.90;;
65684;SDS011;52405;50.844;-1.062;2022-11-20T14:21:55;15.38;;;4.35;;
65684;SDS011;52405;50.844;-1.062;2022-11-20T14:24:33;8.52;;;2.20;;
65684;SDS011;52405;50.844;-1.062;2022-11-20T14:26:58;14.10;;;3.15;;
65684;SDS011;52405;50.844;-1.062;2022-11-20T14:29:28;11.50;;;3.25;;
65684;SDS011;52405;50.844;-1.062;2022-11-20T14:31:58;15.43;;;3.40;;
65684;SDS011;52405;50.844;-1.062;2022-11-20T14:34:25;12.23;;;2.83;;
65684;SDS011;52405;50.844;-1.062;2022-11-20T14:36:57;12.18;;;2.85;;
65684;SDS011;52405;50.844;-1.062;2022-11-20T14:39:28;11.10;;;2.47;;
65684;SDS011;52405;50.844;-1.062;2022-11-20T14:41:54;11.10;;;2.95;;
65684;SDS011;52405;50.844;-1.062;2022-11-20T14:44:21;15.60;;;4.03;;
65684;SDS011;52405;50.844;-1.062;2022-11-20T14:46:52;13.95;;;2.25;;
65684;SDS011;52405;50.844;-1.062;2022-11-20T14:49:18;11.10;;;2.17;;
65684;SDS011;52405;50.844;-1.062;2022-11-20T14:51:44;11.35;;;3.17;;
65684;SDS011;52405;50.844;-1.062;2022-11-20T14:54:12;9.52;;;2.22;;
65684;SDS011;52405;50.844;-1.062;2022-11-20T14:56:55;5.82;;;1.42;;
65684;SDS011;52405;50.844;-1.062;2022-11-20T14:59:24;11.60;;;1.70;;
65684;SDS011;52405;50.844;-1.062;2022-11-20T15:01:55;9.20;;;2.03;;
65684;SDS011;52405;50.844;-1.062;2022-11-20T15:04:21;9.10;;;1.80;;
65684;SDS011;52405;50.844;-1.062;2022-11-20T15:06:50;8.95;;;1.95;;
65684;SDS011;52405;50.844;-1.062;2022-11-20T15:09:18;4.75;;;1.80;;
65684;SDS011;52405;50.844;-1.062;2022-11-20T15:11:56;5.82;;;1.90;;
65684;SDS011;52405;50.844;-1.062;2022-11-20T15:14:24;7.45;;;2.10;;
65684;SDS011;52405;50.844;-1.062;2022-11-20T15:16:52;7.80;;;1.48;;
65684;SDS011;52405;50.844;-1.062;2022-11-20T15:19:22;5.03;;;1.63;;
65684;SDS011;52405;50.844;-1.062;2022-11-20T15:21:49;12.35;;;1.70;;
65684;SDS011;52405;50.844;-1.062;2022-11-20T15:24:15;9.38;;;1.45;;
65684;SDS011;52405;50.844;-1.062;2022-11-20T15:26:41;5.93;;;1.20;;
65684;SDS011;52405;50.844;-1.062;2022-11-20T15:29:11;9.00;;;1.17;;
65684;SDS011;52405;50.844;-1.062;2022-11-20T15:31:38;14.15;;;1.40;;
65684;SDS011;52405;50.844;-1.062;2022-11-20T15:34:11;6.03;;;2.45;;
65684;SDS011;52405;50.844;-1.062;2022-11-20T15:36:39;15.32;;;3.13;;
65684;SDS011;52405;50.844;-1.062;2022-11-20T15:39:04;7.63;;;1.75;;
65684;SDS011;52405;50.844;-1.062;2022-11-20T15:41:32;6.05;;;1.92;;
65684;SDS011;52405;50.844;-1.062;2022-11-20T15:44:01;6.97;;;1.63;;
65684;SDS011;52405;50.844;-1.062;2022-11-20T15:46:28;6.70;;;1.98;;
65684;SDS011;52405;50.844;-1.062;2022-11-20T15:48:58;5.43;;;1.92;;
65684;SDS011;52405;50.844;-1.062;2022-11-20T15:53:50;7.25;;;1.85;;
65684;SDS011;52405;50.844;-1.062;2022-11-20T15:56:15;4.70;;;1.95;;
65684;SDS011;52405;50.844;-1.062;2022-11-20T15:58:41;4.15;;;1.33;;
65684;SDS011;52405;50.844;-1.062;2022-11-20T16:01:11;5.75;;;2.03;;
65684;SDS011;52405;50.844;-1.062;2022-11-20T16:03:38;10.63;;;1.65;;
65684;SDS011;52405;50.844;-1.062;2022-11-20T16:06:04;6.90;;;1.52;;
65684;SDS011;52405;50.844;-1.062;2022-11-20T16:08:29;3.80;;;1.55;;
65684;SDS011;52405;50.844;-1.062;2022-11-20T16:10:55;7.20;;;1.42;;
65684;SDS011;52405;50.844;-1.062;2022-11-20T16:13:20;6.13;;;1.45;;
65684;SDS011;52405;50.844;-1.062;2022-11-20T16:16:11;10.85;;;2.92;;
65684;SDS011;52405;50.844;-1.062;2022-11-20T16:18:53;5.70;;;1.70;;
65684;SDS011;52405;50.844;-1.062;2022-11-20T16:21:18;11.98;;;2.50;;
65684;SDS011;52405;50.844;-1.062;2022-11-20T16:23:43;6.57;;;2.33;;
65684;SDS011;52405;50.844;-1.062;2022-11-20T16:26:10;8.00;;;2.88;;
65684;SDS011;52405;50.844;-1.062;2022-11-20T16:28:41;4.93;;;2.75;;